createdAt,value
2022-11-13T00:03:36.428Z,16.85
2022-11-13T00:07:18.309Z,16.65
2022-11-13T00:11:06.178Z,19.48
2022-11-13T00:14:48.002Z,14.10
2022-11-13T00:18:30.669Z,19.83
2022-11-13T00:22:13.451Z,20.08
2022-11-13T00:25:55.355Z,12.63
2022-11-13T00:29:37.211Z,14.82
2022-11-13T00:33:37.971Z,18.42
2022-11-13T00:37:20.926Z,19.20
2022-11-13T00:41:02.957Z,20.13
2022-11-13T00:44:44.852Z,20.70
2022-11-13T00:48:27.061Z,19.13
2022-11-13T00:52:09.176Z,17.52
2022-11-13T00:55:51.348Z,22.92
2022-11-13T00:59:33.159Z,21.05
2022-11-13T01:03:16.906Z,17.15
2022-11-13T01:06:58.813Z,19.88
2022-11-13T01:10:53.076Z,19.33
2022-11-13T01:14:35.772Z,23.08
2022-11-13T01:18:17.754Z,20.55
2022-11-13T01:21:59.762Z,23.83
2022-11-13T01:25:41.669Z,20.33
2022-11-13T01:29:23.614Z,22.55
2022-11-13T01:33:05.652Z,23.88
2022-11-13T01:36:47.472Z,22.45
2022-11-13T01:40:29.284Z,19.60
2022-11-13T01:44:16.449Z,18.33
2022-11-13T01:47:58.620Z,16.75
2022-11-13T01:51:46.654Z,25.92
2022-11-13T01:55:29.088Z,19.70
2022-11-13T01:59:17.783Z,22.17
2022-11-13T02:02:59.812Z,21.48
2022-11-13T02:06:53.574Z,19.25
2022-11-13T02:10:35.604Z,21.92
2022-11-13T02:14:20.793Z,17.23
2022-11-13T02:18:04.194Z,18.55
2022-11-13T02:22:07.949Z,19.48
2022-11-13T02:25:53.563Z,20.02
2022-11-13T02:29:35.400Z,17.98
2022-11-13T02:33:31.480Z,22.33
2022-11-13T02:37:13.286Z,19.50
2022-11-13T02:40:55.362Z,19.13
2022-11-13T02:44:37.304Z,23.50
2022-11-13T02:48:19.351Z,19.67
2022-11-13T02:52:01.186Z,19.40
2022-11-13T02:55:43.094Z,21.63
2022-11-13T02:59:24.900Z,21.67
2022-11-13T03:03:06.728Z,27.58
2022-11-13T03:06:48.902Z,22.05
2022-11-13T03:10:30.910Z,19.90
2022-11-13T03:14:12.855Z,18.58
2022-11-13T03:17:54.719Z,24.63
2022-11-13T03:21:36.594Z,23.60
2022-11-13T03:25:18.443Z,20.05
2022-11-13T03:29:00.672Z,22.20
2022-11-13T03:32:42.493Z,20.98
2022-11-13T03:36:24.652Z,19.77
2022-11-13T03:40:07.235Z,21.00
2022-11-13T03:43:49.218Z,19.40
2022-11-13T03:47:31.160Z,21.48
2022-11-13T03:51:13.054Z,23.67
2022-11-13T03:54:54.952Z,23.15
2022-11-13T03:58:40.161Z,24.13
2022-11-13T04:02:22.458Z,22.13
2022-11-13T04:06:04.563Z,24.00
2022-11-13T04:09:46.398Z,20.05
2022-11-13T04:13:28.240Z,23.17
2022-11-13T04:17:10.055Z,18.00
2022-11-13T04:20:52.084Z,18.90
2022-11-13T04:24:34.125Z,19.65
2022-11-13T04:28:15.987Z,19.38
2022-11-13T04:31:58.095Z,16.23
2022-11-13T04:35:41.911Z,21.23
2022-11-13T04:39:23.867Z,19.85
2022-11-13T04:43:05.699Z,16.90
2022-11-13T04:46:47.646Z,20.95
2022-11-13T04:50:30.469Z,16.65
2022-11-13T04:54:12.304Z,20.15
2022-11-13T04:57:55.706Z,17.08
2022-11-13T05:01:37.809Z,15.98
2022-11-13T05:05:19.751Z,16.67
2022-11-13T05:09:01.622Z,16.45
2022-11-13T05:12:43.451Z,15.05
2022-11-13T05:16:25.368Z,20.05
2022-11-13T05:20:07.816Z,19.30
2022-11-13T05:23:49.755Z,19.20
2022-11-13T05:27:31.656Z,17.63
2022-11-13T05:31:15.476Z,15.93
2022-11-13T05:34:57.382Z,16.88
2022-11-13T05:38:39.840Z,17.20
2022-11-13T05:42:21.662Z,16.73
2022-11-13T05:46:12.509Z,19.80
2022-11-13T05:49:54.447Z,16.70
2022-11-13T05:53:37.157Z,16.70
2022-11-13T05:57:19.008Z,14.88
2022-11-13T06:01:14.613Z,17.35
2022-11-13T06:04:56.760Z,15.15
2022-11-13T06:08:39.262Z,19.25
2022-11-13T06:12:21.148Z,17.83
2022-11-13T06:16:14.827Z,17.95
2022-11-13T06:19:56.661Z,17.55
2022-11-13T06:23:39.979Z,23.92
2022-11-13T06:27:21.821Z,20.38
2022-11-13T06:31:09.284Z,21.02
2022-11-13T06:34:51.249Z,21.67
2022-11-13T06:38:35.014Z,22.08
2022-11-13T06:42:16.874Z,17.13
2022-11-13T06:45:59.452Z,19.00
2022-11-13T06:49:41.282Z,14.63
2022-11-13T06:53:23.098Z,14.95
2022-11-13T06:57:04.927Z,14.85
2022-11-13T07:00:46.856Z,17.30
2022-11-13T07:04:28.727Z,20.80
2022-11-13T07:08:11.023Z,19.92
2022-11-13T07:11:52.831Z,20.33
2022-11-13T07:15:39.280Z,18.42
2022-11-13T07:19:21.102Z,22.77
2022-11-13T07:23:04.419Z,26.35
2022-11-13T07:26:46.261Z,21.50
2022-11-13T07:30:28.128Z,22.55
2022-11-13T07:34:10.091Z,24.88
2022-11-13T07:37:56.309Z,23.45
2022-11-13T07:41:38.514Z,21.97
2022-11-13T07:45:20.618Z,21.60
2022-11-13T07:49:02.612Z,20.45
2022-11-13T07:52:44.542Z,19.45
2022-11-13T07:56:26.895Z,17.80
2022-11-13T08:00:09.497Z,21.83
2022-11-13T08:03:51.623Z,20.98
2022-11-13T08:07:33.439Z,20.42
2022-11-13T08:11:15.473Z,22.33
2022-11-13T08:14:57.359Z,24.02
2022-11-13T08:18:39.208Z,20.40
2022-11-13T08:22:21.040Z,24.58
2022-11-13T08:26:06.779Z,32.55
2022-11-13T08:29:50.123Z,30.88
2022-11-13T08:33:32.000Z,32.67
2022-11-13T08:37:13.818Z,36.10
2022-11-13T08:41:08.600Z,30.02
2022-11-13T08:44:51.315Z,30.90
2022-11-13T08:48:33.208Z,27.00
2022-11-13T08:52:15.551Z,33.38
2022-11-13T08:56:01.567Z,26.25
2022-11-13T08:59:43.555Z,29.17
2022-11-13T09:03:25.443Z,29.92
2022-11-13T09:07:07.478Z,25.42
2022-11-13T09:10:49.497Z,28.85
2022-11-13T09:14:31.417Z,26.42
2022-11-13T09:18:13.282Z,23.67
2022-11-13T09:21:55.283Z,22.92
2022-11-13T09:25:38.064Z,33.50
2022-11-13T09:29:21.143Z,26.00
2022-11-13T09:33:03.553Z,17.00
2022-11-13T09:36:45.409Z,19.65
2022-11-13T09:40:35.285Z,16.20
2022-11-13T09:45:00.283Z,17.98
2022-11-13T09:49:12.959Z,14.55
2022-11-13T09:52:55.533Z,15.40
2022-11-13T09:56:47.278Z,13.65
2022-11-13T10:00:30.213Z,14.60
2022-11-13T10:04:15.127Z,15.07
2022-11-13T10:08:18.541Z,15.57
2022-11-13T10:12:06.660Z,14.88
2022-11-13T10:15:53.116Z,12.80
2022-11-13T10:19:58.476Z,16.85
2022-11-13T10:23:41.007Z,14.15
2022-11-13T10:27:24.044Z,15.27
2022-11-13T10:31:06.017Z,13.50
2022-11-13T10:35:06.333Z,11.40
2022-11-13T10:39:05.540Z,14.38
2022-11-13T10:42:47.419Z,16.90
2022-11-13T10:46:31.075Z,12.82
2022-11-13T10:50:25.220Z,10.43
2022-11-13T10:54:29.972Z,10.48
2022-11-13T10:58:19.820Z,14.50
2022-11-13T11:02:19.265Z,8.52
2022-11-13T11:06:03.763Z,13.77
2022-11-13T11:09:47.608Z,9.25
2022-11-13T11:13:29.613Z,10.18
2022-11-13T11:17:14.243Z,9.88
2022-11-13T11:20:59.260Z,10.35
2022-11-13T11:24:58.427Z,9.93
2022-11-13T11:28:48.093Z,9.82
2022-11-13T11:32:38.841Z,10.02
2022-11-13T11:36:40.319Z,10.77
2022-11-13T11:40:33.280Z,10.90
2022-11-13T11:44:21.124Z,9.65
2022-11-13T11:48:06.295Z,12.18
2022-11-13T11:51:57.719Z,10.50
2022-11-13T11:56:18.010Z,11.45
2022-11-13T12:00:17.987Z,10.02
2022-11-13T12:04:10.973Z,9.23
2022-11-13T12:08:06.992Z,10.00
2022-11-13T12:12:16.731Z,8.05
2022-11-13T12:16:02.012Z,8.52
2022-11-13T12:20:17.816Z,10.65
2022-11-13T12:24:27.340Z,9.38
2022-11-13T12:28:21.224Z,11.48
2022-11-13T12:32:49.763Z,10.43
2022-11-13T12:36:32.229Z,9.23
2022-11-13T12:40:44.723Z,10.18
2022-11-13T12:44:29.031Z,8.43
2022-11-13T12:48:21.921Z,8.00
2022-11-13T12:52:15.751Z,11.18
2022-11-13T12:56:02.832Z,10.10
2022-11-13T12:59:54.500Z,7.82
2022-11-13T13:03:42.196Z,10.48
2022-11-13T13:08:03.603Z,6.72
2022-11-13T13:11:53.729Z,9.10
2022-11-13T13:15:39.227Z,8.02
2022-11-13T13:19:31.090Z,8.05
2022-11-13T13:23:14.086Z,10.07
2022-11-13T13:26:56.100Z,9.60
2022-11-13T13:31:01.000Z,8.30
2022-11-13T13:35:05.973Z,8.60
2022-11-13T13:39:16.616Z,10.88
2022-11-13T13:43:41.917Z,8.77
2022-11-13T13:47:40.383Z,9.80
2022-11-13T13:51:37.613Z,8.13
2022-11-13T13:55:28.135Z,11.75
2022-11-13T13:59:26.847Z,12.48
2022-11-13T14:03:23.003Z,10.32
2022-11-13T14:07:28.132Z,12.80
2022-11-13T14:11:18.856Z,7.18
2022-11-13T14:15:03.536Z,7.60
2022-11-13T14:18:45.369Z,43.40
2022-11-13T14:22:27.895Z,19.77
2022-11-13T14:26:11.979Z,10.18
2022-11-13T14:29:56.792Z,8.93
2022-11-13T14:33:44.487Z,11.45
2022-11-13T14:37:39.959Z,7.35
2022-11-13T14:41:24.336Z,8.88
2022-11-13T14:45:27.744Z,8.82
2022-11-13T14:49:36.289Z,9.98
2022-11-13T14:53:36.104Z,10.07
2022-11-13T14:57:18.008Z,13.70
2022-11-13T15:01:12.711Z,10.32
2022-11-13T15:04:54.537Z,8.48
2022-11-13T15:08:37.095Z,11.52
2022-11-13T15:12:18.926Z,9.38
2022-11-13T15:16:00.891Z,11.05
2022-11-13T15:19:43.051Z,14.40
2022-11-13T15:23:26.563Z,14.43
2022-11-13T15:27:16.959Z,7.85
2022-11-13T15:30:58.791Z,10.40
2022-11-13T15:34:40.660Z,9.50
2022-11-13T15:38:22.475Z,10.43
2022-11-13T15:42:07.125Z,9.23
2022-11-13T15:45:49.011Z,10.63
2022-11-13T15:49:30.815Z,8.50
2022-11-13T15:53:12.712Z,9.82
2022-11-13T15:56:54.570Z,10.30
2022-11-13T16:00:41.811Z,10.45
2022-11-13T16:04:24.193Z,10.15
2022-11-13T16:08:13.453Z,10.07
2022-11-13T16:15:38.088Z,12.15
2022-11-13T16:19:23.824Z,8.55
2022-11-13T16:23:05.628Z,8.82
2022-11-13T16:26:54.750Z,11.27
2022-11-13T16:30:36.634Z,10.90
2022-11-13T16:34:18.460Z,11.45
2022-11-13T16:38:00.336Z,10.27
2022-11-13T16:41:42.220Z,9.93
2022-11-13T16:45:24.058Z,9.77
2022-11-13T16:49:05.863Z,12.40
2022-11-13T16:52:47.969Z,13.77
2022-11-13T16:56:30.688Z,12.05
2022-11-13T17:00:16.138Z,11.77
2022-11-13T17:03:58.403Z,11.38
2022-11-13T17:07:40.454Z,11.77
2022-11-13T17:11:27.130Z,11.50
2022-11-13T17:15:10.402Z,10.57
2022-11-13T17:18:53.361Z,11.15
2022-11-13T17:22:35.184Z,8.98
2022-11-13T17:26:17.149Z,12.52
2022-11-13T17:29:58.952Z,10.60
2022-11-13T17:33:41.181Z,11.77
2022-11-13T17:37:25.312Z,11.20
2022-11-13T17:41:12.655Z,13.85
2022-11-13T17:44:54.552Z,9.15
2022-11-13T17:48:36.886Z,10.07
2022-11-13T17:52:18.717Z,11.23
2022-11-13T17:56:03.255Z,11.05
2022-11-13T17:59:45.068Z,17.20
2022-11-13T18:03:27.173Z,12.05
2022-11-13T18:07:09.362Z,15.75
2022-11-13T18:10:51.194Z,11.52
2022-11-13T18:14:33.133Z,15.88
2022-11-13T18:18:14.974Z,15.63
2022-11-13T18:21:56.802Z,14.73
2022-11-13T18:25:39.921Z,17.50
2022-11-13T18:29:21.919Z,18.50
2022-11-13T18:33:03.832Z,15.68
2022-11-13T18:36:45.796Z,16.77
2022-11-13T18:40:27.724Z,20.80
2022-11-13T18:44:10.102Z,21.95
2022-11-13T18:47:51.901Z,19.65
2022-11-13T18:51:36.671Z,19.20
2022-11-13T18:55:18.514Z,17.20
2022-11-13T18:59:00.495Z,20.42
2022-11-13T19:02:42.375Z,17.65
2022-11-13T19:06:24.298Z,18.40
2022-11-13T19:10:06.465Z,17.70
2022-11-13T19:13:49.795Z,21.05
2022-11-13T19:17:31.736Z,19.02
2022-11-13T19:21:20.611Z,16.67
2022-11-13T19:25:03.482Z,17.10
2022-11-13T19:28:51.987Z,17.55
2022-11-13T19:32:33.812Z,15.07
2022-11-13T19:36:17.808Z,10.82
2022-11-13T19:39:59.632Z,14.85
2022-11-13T19:43:41.849Z,14.77
2022-11-13T19:47:23.696Z,12.63
2022-11-13T19:51:14.667Z,13.80
2022-11-13T19:54:56.849Z,11.85
2022-11-13T19:58:38.779Z,13.23
2022-11-13T20:02:20.627Z,13.75
2022-11-13T20:06:02.446Z,13.02
2022-11-13T20:09:44.317Z,13.57
2022-11-13T20:13:26.126Z,14.85
2022-11-13T20:17:08.044Z,14.63
2022-11-13T20:20:54.444Z,19.52
2022-11-13T20:24:36.796Z,16.08
2022-11-13T20:28:18.775Z,22.63
2022-11-13T20:32:01.103Z,13.70
2022-11-13T20:35:43.334Z,13.52
2022-11-13T20:39:25.170Z,15.57
2022-11-13T20:43:07.008Z,15.77
2022-11-13T20:46:48.807Z,12.82
2022-11-13T20:50:30.629Z,13.50
2022-11-13T20:54:12.584Z,12.02
2022-11-13T20:57:54.382Z,15.32
2022-11-13T21:01:37.237Z,14.85
2022-11-13T21:05:19.085Z,15.15
2022-11-13T21:09:01.792Z,17.55
2022-11-13T21:12:43.653Z,14.50
2022-11-13T21:16:27.662Z,17.95
2022-11-13T21:20:10.070Z,16.42
2022-11-13T21:23:55.064Z,18.45
2022-11-13T21:27:36.924Z,17.73
2022-11-13T21:31:20.670Z,17.70
2022-11-13T21:35:02.499Z,13.40
2022-11-13T21:38:44.621Z,16.63
2022-11-13T21:42:26.429Z,16.98
2022-11-13T21:46:08.864Z,16.45
2022-11-13T21:49:50.815Z,13.82
2022-11-13T21:53:32.609Z,14.90
2022-11-13T21:57:14.519Z,16.08
2022-11-13T22:00:56.348Z,13.20
2022-11-13T22:04:38.158Z,14.20
2022-11-13T22:08:19.962Z,12.18
2022-11-13T22:12:01.907Z,16.20
2022-11-13T22:15:43.737Z,13.18
2022-11-13T22:19:29.244Z,21.48
2022-11-13T22:23:12.988Z,17.90
2022-11-13T22:26:55.019Z,15.88
2022-11-13T22:30:36.887Z,18.52
2022-11-13T22:34:18.728Z,21.35
2022-11-13T22:38:02.915Z,18.45
2022-11-13T22:41:44.750Z,21.42
2022-11-13T22:45:26.583Z,23.73
2022-11-13T22:49:08.469Z,21.40
2022-11-13T22:52:52.384Z,21.20
2022-11-13T22:56:35.480Z,23.60
2022-11-13T23:00:17.769Z,20.98
2022-11-13T23:04:04.147Z,24.98
2022-11-13T23:07:46.008Z,22.17
2022-11-13T23:11:38.968Z,24.05
2022-11-13T23:15:20.854Z,22.35
2022-11-13T23:19:03.534Z,22.63
2022-11-13T23:22:45.350Z,21.63
2022-11-13T23:26:28.445Z,19.20
2022-11-13T23:30:11.114Z,23.73
2022-11-13T23:33:52.931Z,19.98
2022-11-13T23:37:34.796Z,24.55
2022-11-13T23:41:17.063Z,21.77
2022-11-13T23:44:58.916Z,19.33
2022-11-13T23:48:40.771Z,22.65
2022-11-13T23:52:22.643Z,22.95
2022-11-13T23:56:04.973Z,24.65
2022-11-13T23:59:46.865Z,23.65
